Aérodrome :
LOGIN :

S'inscrire | Disclaimer

   EN    FR    IT 

 










Légende :    VFR   VFR Marginal   IFR   IFR Intensif   IFR Très Intensif
Visi : 
Plafond : 
>= 8 km
>= 3000ft
5 à 8 km
1000 à 3000 ft
1500m à 5 km
500 à 1000 ft
800 à 1500m
200 à 500 ft
< 800m
< 200 ft
Symboles :   Orages  Brouillard  Fortes neiges  Fortes précipitations  Vent > 20 kt
SIGMETs :   Divers  Orages  Givrage  Turbulence  Onde Orograph.  Cendres Volcan.







- Altitude de l'aérodrome : 288 ft
- Code IATA : BZZ


EGVN - RAF Brize Norton

DERNIER METAR :
  • 161750Z 22006KT 9999 BKN021 BKN040 15/12 Q1015 WHT TEMPO BKN025 BLU

METARs EXPIRÉS :
  • 161650Z 21005KT 9999 BKN044 SCT250 16/13 Q1015 NOSIG
  • 161550Z 22005KT 9999 FEW023 BKN048 16/14 Q1015 BLU NOSIG
  • 161540Z 23004KT 9999 BKN023 BKN030 16/14 Q1015 WHT BECMG FEW023 BLU

TAF TAF EGVN
Valide du 16 à 18h jusqu'au 17 à 18h UTC


161634Z 1618/1718 23005KT 9999 SCT030
PROB30 1618/1623 SCT023
BECMG 1623/1702 5000 BR BKN007
BECMG 1702/1705 4000 -RA BKN005
TEMPO 1703/1710 1200 RADZ BKN002
BECMG 1710/1713 9999 NSW FEW015
PROB30 1713/1718 3000 RADZ BKN005
Pas de NOTAMs connus pour ce terrain.



MET'MAP, la Météo Aéronautique d'un coup d'oeil ! - Copyright ORBIFLY Décembre 2007 - Disclaimer

ORBIFLY MET'MAP TEAM :

Programmation & Développement : Alexandra Zaïnal
Conception & Développement : Baudouin d'Aumeries
Co-Programmation & Développement : Marc-Olivier Méhu
Soutien technique & logistique : Manuel Goepfert

Contact : metmap@orbifly.com




SOURCES & CREDITS :

   NOAA